sensor_id;sensor_type;location;lat;lon;timestamp;pressure;altitude;pressure_sealevel;temperature
19061;BMP280;9663;48.996;8.334;2023-11-19T00:01:40;100192.56;;;16.81
19061;BMP280;9663;48.996;8.334;2023-11-19T00:04:06;100188.19;;;16.85
19061;BMP280;9663;48.996;8.334;2023-11-19T00:06:32;100179.56;;;16.89
19061;BMP280;9663;48.996;8.334;2023-11-19T00:08:57;100174.38;;;16.90
19061;BMP280;9663;48.996;8.334;2023-11-19T00:11:23;100187.13;;;16.92
19061;BMP280;9663;48.996;8.334;2023-11-19T00:13:49;100194.75;;;16.93
19061;BMP280;9663;48.996;8.334;2023-11-19T00:16:14;100191.31;;;16.94
19061;BMP280;9663;48.996;8.334;2023-11-19T00:18:41;100181.06;;;16.94
19061;BMP280;9663;48.996;8.334;2023-11-19T00:21:07;100175.00;;;16.97
19061;BMP280;9663;48.996;8.334;2023-11-19T00:23:33;100174.13;;;16.98
19061;BMP280;9663;48.996;8.334;2023-11-19T00:25:59;100158.66;;;17.01
19061;BMP280;9663;48.996;8.334;2023-11-19T00:28:25;100154.31;;;17.03
19061;BMP280;9663;48.996;8.334;2023-11-19T00:30:50;100161.00;;;17.07
19061;BMP280;9663;48.996;8.334;2023-11-19T00:33:16;100146.41;;;17.10
19061;BMP280;9663;48.996;8.334;2023-11-19T00:35:41;100141.22;;;17.11
19061;BMP280;9663;48.996;8.334;2023-11-19T00:38:07;100147.16;;;17.13
19061;BMP280;9663;48.996;8.334;2023-11-19T00:40:33;100138.50;;;17.16
19061;BMP280;9663;48.996;8.334;2023-11-19T00:42:58;100135.06;;;17.18
19061;BMP280;9663;48.996;8.334;2023-11-19T00:45:24;100149.47;;;17.21
19061;BMP280;9663;48.996;8.334;2023-11-19T00:47:50;100134.09;;;17.21
19061;BMP280;9663;48.996;8.334;2023-11-19T00:50:16;100146.88;;;17.22
19061;BMP280;9663;48.996;8.334;2023-11-19T00:52:43;100144.31;;;17.22
19061;BMP280;9663;48.996;8.334;2023-11-19T00:55:08;100131.44;;;17.24
19061;BMP280;9663;48.996;8.334;2023-11-19T00:57:34;100138.25;;;17.25
19061;BMP280;9663;48.996;8.334;2023-11-19T01:00:01;100147.50;;;17.29
19061;BMP280;9663;48.996;8.334;2023-11-19T01:02:27;100138.03;;;17.31
19061;BMP280;9663;48.996;8.334;2023-11-19T01:04:52;100122.56;;;17.34
19061;BMP280;9663;48.996;8.334;2023-11-19T01:07:18;100126.69;;;17.38
19061;BMP280;9663;48.996;8.334;2023-11-19T01:09:44;100131.81;;;17.38
19061;BMP280;9663;48.996;8.334;2023-11-19T01:12:09;100109.56;;;17.40
19061;BMP280;9663;48.996;8.334;2023-11-19T01:14:36;100125.75;;;17.40
19061;BMP280;9663;48.996;8.334;2023-11-19T01:17:02;100131.72;;;17.41
19061;BMP280;9663;48.996;8.334;2023-11-19T01:19:28;100130.78;;;17.43
19061;BMP280;9663;48.996;8.334;2023-11-19T01:21:54;100134.22;;;17.42
19061;BMP280;9663;48.996;8.334;2023-11-19T01:24:20;100145.31;;;17.43
19061;BMP280;9663;48.996;8.334;2023-11-19T01:26:47;100142.66;;;17.46
19061;BMP280;9663;48.996;8.334;2023-11-19T01:29:16;100141.78;;;17.47
19061;BMP280;9663;48.996;8.334;2023-11-19T01:31:43;100146.81;;;17.50
19061;BMP280;9663;48.996;8.334;2023-11-19T01:34:10;100136.50;;;17.51
19061;BMP280;9663;48.996;8.334;2023-11-19T01:36:35;100129.53;;;17.54
19061;BMP280;9663;48.996;8.334;2023-11-19T01:39:01;100126.88;;;17.57
19061;BMP280;9663;48.996;8.334;2023-11-19T01:41:27;100133.66;;;17.58
19061;BMP280;9663;48.996;8.334;2023-11-19T01:43:53;100128.44;;;17.61
19061;BMP280;9663;48.996;8.334;2023-11-19T01:46:19;100135.16;;;17.64
19061;BMP280;9663;48.996;8.334;2023-11-19T01:48:46;100138.59;;;17.64
19061;BMP280;9663;48.996;8.334;2023-11-19T01:51:13;100126.50;;;17.68
19061;BMP280;9663;48.996;8.334;2023-11-19T01:53:43;100140.94;;;17.70
19061;BMP280;9663;48.996;8.334;2023-11-19T01:56:12;100122.97;;;17.70
19061;BMP280;9663;48.996;8.334;2023-11-19T01:58:40;100131.53;;;17.71
19061;BMP280;9663;48.996;8.334;2023-11-19T02:01:06;100121.38;;;17.68
19061;BMP280;9663;48.996;8.334;2023-11-19T02:03:33;100116.25;;;17.68
19061;BMP280;9663;48.996;8.334;2023-11-19T02:06:03;100116.28;;;17.66
19061;BMP280;9663;48.996;8.334;2023-11-19T02:08:30;100108.69;;;17.63
19061;BMP280;9663;48.996;8.334;2023-11-19T02:10:55;100113.00;;;17.63
19061;BMP280;9663;48.996;8.334;2023-11-19T02:13:27;100121.56;;;17.62
19061;BMP280;9663;48.996;8.334;2023-11-19T02:15:54;100123.25;;;17.63
19061;BMP280;9663;48.996;8.334;2023-11-19T02:18:27;100123.22;;;17.64
19061;BMP280;9663;48.996;8.334;2023-11-19T02:20:58;100118.06;;;17.64
19061;BMP280;9663;48.996;8.334;2023-11-19T02:23:27;100120.53;;;17.67
19061;BMP280;9663;48.996;8.334;2023-11-19T02:28:51;100117.97;;;17.67
19061;BMP280;9663;48.996;8.334;2023-11-19T02:31:17;100116.91;;;17.73
19061;BMP280;9663;48.996;8.334;2023-11-19T02:33:45;100103.03;;;17.78
19061;BMP280;9663;48.996;8.334;2023-11-19T02:36:11;100109.84;;;17.79
19061;BMP280;9663;48.996;8.334;2023-11-19T02:38:37;100106.38;;;17.80
19061;BMP280;9663;48.996;8.334;2023-11-19T02:41:07;100117.38;;;17.84
19061;BMP280;9663;48.996;8.334;2023-11-19T02:43:34;100098.63;;;17.82
19061;BMP280;9663;48.996;8.334;2023-11-19T02:46:02;100094.34;;;17.82
19061;BMP280;9663;48.996;8.334;2023-11-19T02:48:28;100114.88;;;17.82
19061;BMP280;9663;48.996;8.334;2023-11-19T02:50:53;100120.00;;;17.82
19061;BMP280;9663;48.996;8.334;2023-11-19T02:53:19;100113.19;;;17.81
19061;BMP280;9663;48.996;8.334;2023-11-19T02:55:47;100091.84;;;17.81
19061;BMP280;9663;48.996;8.334;2023-11-19T02:58:16;100072.19;;;17.80
19061;BMP280;9663;48.996;8.334;2023-11-19T03:00:50;100072.97;;;17.82
19061;BMP280;9663;48.996;8.334;2023-11-19T03:03:28;100074.75;;;17.80
19061;BMP280;9663;48.996;8.334;2023-11-19T03:05:57;100086.75;;;17.79
19061;BMP280;9663;48.996;8.334;2023-11-19T03:08:23;100102.16;;;17.79
19061;BMP280;9663;48.996;8.334;2023-11-19T03:10:49;100093.44;;;17.83
19061;BMP280;9663;48.996;8.334;2023-11-19T03:13:15;100086.53;;;17.85
19061;BMP280;9663;48.996;8.334;2023-11-19T03:15:41;100100.22;;;17.86
19061;BMP280;9663;48.996;8.334;2023-11-19T03:18:07;100090.78;;;17.86
19061;BMP280;9663;48.996;8.334;2023-11-19T03:20:33;100082.13;;;17.89
19061;BMP280;9663;48.996;8.334;2023-11-19T03:22:59;100073.47;;;17.91
19061;BMP280;9663;48.996;8.334;2023-11-19T03:25:27;100070.03;;;17.92
19061;BMP280;9663;48.996;8.334;2023-11-19T03:27:59;100079.28;;;17.96
19061;BMP280;9663;48.996;8.334;2023-11-19T03:30:26;100085.19;;;17.98
19061;BMP280;9663;48.996;8.334;2023-11-19T03:32:51;100063.72;;;18.00
19061;BMP280;9663;48.996;8.334;2023-11-19T03:35:17;100061.16;;;18.00
19061;BMP280;9663;48.996;8.334;2023-11-19T03:37:43;100067.13;;;18.01
19061;BMP280;9663;48.996;8.334;2023-11-19T03:40:10;100069.56;;;18.04
19061;BMP280;9663;48.996;8.334;2023-11-19T03:42:36;100074.75;;;18.02
19061;BMP280;9663;48.996;8.334;2023-11-19T03:45:01;100077.28;;;18.04
19061;BMP280;9663;48.996;8.334;2023-11-19T03:47:29;100075.53;;;18.04
19061;BMP280;9663;48.996;8.334;2023-11-19T03:49:55;100085.75;;;18.06
19061;BMP280;9663;48.996;8.334;2023-11-19T03:52:20;100089.00;;;18.11
19061;BMP280;9663;48.996;8.334;2023-11-19T03:54:46;100082.94;;;18.13
19061;BMP280;9663;48.996;8.334;2023-11-19T03:57:12;100079.34;;;18.17
19061;BMP280;9663;48.996;8.334;2023-11-19T03:59:39;100088.69;;;18.20
19061;BMP280;9663;48.996;8.334;2023-11-19T04:02:05;100081.81;;;18.20
19061;BMP280;9663;48.996;8.334;2023-11-19T04:04:32;100084.34;;;18.22
19061;BMP280;9663;48.996;8.334;2023-11-19T04:07:00;100090.19;;;18.25
19061;BMP280;9663;48.996;8.334;2023-11-19T04:09:27;100095.25;;;18.27
19061;BMP280;9663;48.996;8.334;2023-11-19T04:11:52;100090.06;;;18.28
19061;BMP280;9663;48.996;8.334;2023-11-19T04:14:18;100088.34;;;18.29
19061;BMP280;9663;48.996;8.334;2023-11-19T04:16:47;100087.31;;;18.33
19061;BMP280;9663;48.996;8.334;2023-11-19T04:19:13;100087.31;;;18.33
19061;BMP280;9663;48.996;8.334;2023-11-19T04:21:41;100089.00;;;18.34
19061;BMP280;9663;48.996;8.334;2023-11-19T04:24:11;100093.19;;;18.36
19061;BMP280;9663;48.996;8.334;2023-11-19T04:26:44;100076.94;;;18.36
19061;BMP280;9663;48.996;8.334;2023-11-19T04:29:16;100082.00;;;18.37
19061;BMP280;9663;48.996;8.334;2023-11-19T04:31:45;100077.84;;;18.35
19061;BMP280;9663;48.996;8.334;2023-11-19T04:34:11;100072.72;;;18.35
19061;BMP280;9663;48.996;8.334;2023-11-19T04:36:38;100082.00;;;18.37
19061;BMP280;9663;48.996;8.334;2023-11-19T04:39:04;100081.19;;;18.37
19061;BMP280;9663;48.996;8.334;2023-11-19T04:41:35;100081.19;;;18.37
19061;BMP280;9663;48.996;8.334;2023-11-19T04:44:02;100081.13;;;18.38
19061;BMP280;9663;48.996;8.334;2023-11-19T04:46:27;100082.66;;;18.42
19061;BMP280;9663;48.996;8.334;2023-11-19T04:48:53;100086.06;;;18.42
19061;BMP280;9663;48.996;8.334;2023-11-19T04:51:18;100071.41;;;18.46
19061;BMP280;9663;48.996;8.334;2023-11-19T04:53:44;100058.38;;;18.50
19061;BMP280;9663;48.996;8.334;2023-11-19T04:56:11;100058.19;;;18.55
19061;BMP280;9663;48.996;8.334;2023-11-19T04:58:37;100064.88;;;18.59
19061;BMP280;9663;48.996;8.334;2023-11-19T05:01:06;100062.97;;;18.64
19061;BMP280;9663;48.996;8.334;2023-11-19T05:03:39;100078.19;;;18.68
19061;BMP280;9663;48.996;8.334;2023-11-19T05:06:06;100067.81;;;18.71
19061;BMP280;9663;48.996;8.334;2023-11-19T05:08:31;100067.56;;;18.77
19061;BMP280;9663;48.996;8.334;2023-11-19T05:10:57;100052.94;;;18.79
19061;BMP280;9663;48.996;8.334;2023-11-19T05:13:24;100052.72;;;18.83
19061;BMP280;9663;48.996;8.334;2023-11-19T05:15:50;100061.94;;;18.89
19061;BMP280;9663;48.996;8.334;2023-11-19T05:18:16;100067.78;;;18.92
19061;BMP280;9663;48.996;8.334;2023-11-19T05:20:41;100071.88;;;18.96
19061;BMP280;9663;48.996;8.334;2023-11-19T05:23:07;100070.94;;;18.99
19061;BMP280;9663;48.996;8.334;2023-11-19T05:25:33;100069.06;;;19.04
19061;BMP280;9663;48.996;8.334;2023-11-19T05:27:59;100073.22;;;19.06
19061;BMP280;9663;48.996;8.334;2023-11-19T05:30:24;100063.63;;;19.10
19061;BMP280;9663;48.996;8.334;2023-11-19T05:32:50;100077.28;;;19.12
19061;BMP280;9663;48.996;8.334;2023-11-19T05:35:16;100072.91;;;19.14
19061;BMP280;9663;48.996;8.334;2023-11-19T05:37:41;100064.22;;;19.16
19061;BMP280;9663;48.996;8.334;2023-11-19T05:40:08;100046.97;;;19.20
19061;BMP280;9663;48.996;8.334;2023-11-19T05:42:40;100051.94;;;19.23
19061;BMP280;9663;48.996;8.334;2023-11-19T05:45:08;100045.03;;;19.25
19061;BMP280;9663;48.996;8.334;2023-11-19T05:47:34;100040.59;;;19.28
19061;BMP280;9663;48.996;8.334;2023-11-19T05:49:59;100049.13;;;19.28
19061;BMP280;9663;48.996;8.334;2023-11-19T05:52:25;100043.16;;;19.28
19061;BMP280;9663;48.996;8.334;2023-11-19T05:54:51;100049.06;;;19.30
19061;BMP280;9663;48.996;8.334;2023-11-19T05:57:17;100047.25;;;19.32
19061;BMP280;9663;48.996;8.334;2023-11-19T05:59:49;100042.88;;;19.34
19061;BMP280;9663;48.996;8.334;2023-11-19T06:02:15;100043.66;;;19.36
19061;BMP280;9663;48.996;8.334;2023-11-19T06:04:41;100039.22;;;19.39
19061;BMP280;9663;48.996;8.334;2023-11-19T06:07:09;100047.66;;;19.43
19061;BMP280;9663;48.996;8.334;2023-11-19T06:09:35;100044.16;;;19.44
19061;BMP280;9663;48.996;8.334;2023-11-19T06:12:01;100038.06;;;19.46
19061;BMP280;9663;48.996;8.334;2023-11-19T06:14:31;100028.47;;;19.50
19061;BMP280;9663;48.996;8.334;2023-11-19T06:16:57;100044.59;;;19.53
19061;BMP280;9663;48.996;8.334;2023-11-19T06:19:22;100029.94;;;19.55
19061;BMP280;9663;48.996;8.334;2023-11-19T06:21:50;100028.91;;;19.59
19061;BMP280;9663;48.996;8.334;2023-11-19T06:24:16;100034.06;;;19.59
19061;BMP280;9663;48.996;8.334;2023-11-19T06:26:42;100036.63;;;19.59
19061;BMP280;9663;48.996;8.334;2023-11-19T06:29:08;100051.16;;;19.60
19061;BMP280;9663;48.996;8.334;2023-11-19T06:31:34;100049.50;;;19.59
19061;BMP280;9663;48.996;8.334;2023-11-19T06:34:00;100048.69;;;19.57
19061;BMP280;9663;48.996;8.334;2023-11-19T06:36:25;100049.63;;;19.56
19061;BMP280;9663;48.996;8.334;2023-11-19T06:38:52;100046.00;;;19.60
19061;BMP280;9663;48.996;8.334;2023-11-19T06:41:21;100040.84;;;19.60
19061;BMP280;9663;48.996;8.334;2023-11-19T06:43:46;100047.75;;;19.60
19061;BMP280;9663;48.996;8.334;2023-11-19T06:46:19;100048.50;;;19.62
19061;BMP280;9663;48.996;8.334;2023-11-19T06:48:45;100038.22;;;19.62
19061;BMP280;9663;48.996;8.334;2023-11-19T06:51:12;100031.19;;;19.65
19061;BMP280;9663;48.996;8.334;2023-11-19T06:53:38;100036.28;;;19.67
19061;BMP280;9663;48.996;8.334;2023-11-19T06:56:17;100047.28;;;19.70
19061;BMP280;9663;48.996;8.334;2023-11-19T06:58:42;100034.41;;;19.70
19061;BMP280;9663;48.996;8.334;2023-11-19T07:01:08;100036.16;;;19.69
19061;BMP280;9663;48.996;8.334;2023-11-19T07:03:35;100049.91;;;19.68
19061;BMP280;9663;48.996;8.334;2023-11-19T07:06:01;100060.94;;;19.72
19061;BMP280;9663;48.996;8.334;2023-11-19T07:08:26;100060.94;;;19.72
19061;BMP280;9663;48.996;8.334;2023-11-19T07:10:53;100061.75;;;19.72
19061;BMP280;9663;48.996;8.334;2023-11-19T07:13:18;100060.00;;;19.73
19061;BMP280;9663;48.996;8.334;2023-11-19T07:15:45;100070.22;;;19.74
19061;BMP280;9663;48.996;8.334;2023-11-19T07:18:10;100067.72;;;19.73
19061;BMP280;9663;48.996;8.334;2023-11-19T07:20:37;100071.22;;;19.72
19061;BMP280;9663;48.996;8.334;2023-11-19T07:23:04;100081.63;;;19.69
19061;BMP280;9663;48.996;8.334;2023-11-19T07:25:30;100079.97;;;19.68
19061;BMP280;9663;48.996;8.334;2023-11-19T07:27:55;100070.50;;;19.68
19061;BMP280;9663;48.996;8.334;2023-11-19T07:30:22;100073.84;;;19.70
19061;BMP280;9663;48.996;8.334;2023-11-19T07:32:48;100081.50;;;19.72
19061;BMP280;9663;48.996;8.334;2023-11-19T07:35:14;100078.78;;;19.75
19061;BMP280;9663;48.996;8.334;2023-11-19T07:37:42;100101.81;;;19.78
19061;BMP280;9663;48.996;8.334;2023-11-19T07:40:08;100100.00;;;19.80
19061;BMP280;9663;48.996;8.334;2023-11-19T07:42:34;100088.75;;;19.82
19061;BMP280;9663;48.996;8.334;2023-11-19T07:45:00;100094.63;;;19.86
19061;BMP280;9663;48.996;8.334;2023-11-19T07:47:25;100096.22;;;19.88
19061;BMP280;9663;48.996;8.334;2023-11-19T07:49:51;100105.50;;;19.92
19061;BMP280;9663;48.996;8.334;2023-11-19T07:52:17;100101.09;;;19.94
19061;BMP280;9663;48.996;8.334;2023-11-19T07:54:43;100098.34;;;19.99
19061;BMP280;9663;48.996;8.334;2023-11-19T07:57:09;100103.34;;;20.02
19061;BMP280;9663;48.996;8.334;2023-11-19T07:59:37;100116.06;;;20.05
19061;BMP280;9663;48.996;8.334;2023-11-19T08:02:02;100117.81;;;20.04
19061;BMP280;9663;48.996;8.334;2023-11-19T08:04:29;100122.25;;;20.01
19061;BMP280;9663;48.996;8.334;2023-11-19T08:06:54;100126.66;;;19.99
19061;BMP280;9663;48.996;8.334;2023-11-19T08:09:20;100111.34;;;19.96
19061;BMP280;9663;48.996;8.334;2023-11-19T08:11:46;100114.81;;;19.95
19061;BMP280;9663;48.996;8.334;2023-11-19T08:14:12;100122.47;;;19.96
19061;BMP280;9663;48.996;8.334;2023-11-19T08:16:39;100122.25;;;20.01
19061;BMP280;9663;48.996;8.334;2023-11-19T08:19:05;100130.69;;;20.04
19061;BMP280;9663;48.996;8.334;2023-11-19T08:21:31;100133.13;;;20.07
19061;BMP280;9663;48.996;8.334;2023-11-19T08:23:58;100123.66;;;20.08
19061;BMP280;9663;48.996;8.334;2023-11-19T08:26:24;100126.94;;;20.11
19061;BMP280;9663;48.996;8.334;2023-11-19T08:28:50;100141.28;;;20.16
19061;BMP280;9663;48.996;8.334;2023-11-19T08:31:17;100140.31;;;20.19
19061;BMP280;9663;48.996;8.334;2023-11-19T08:33:43;100141.06;;;20.21
19061;BMP280;9663;48.996;8.334;2023-11-19T08:36:09;100129.81;;;20.23
19061;BMP280;9663;48.996;8.334;2023-11-19T08:38:40;100122.78;;;20.27
19061;BMP280;9663;48.996;8.334;2023-11-19T08:41:06;100128.63;;;20.30
19061;BMP280;9663;48.996;8.334;2023-11-19T08:43:31;100121.50;;;20.35
19061;BMP280;9663;48.996;8.334;2023-11-19T08:45:57;100118.81;;;20.38
19061;BMP280;9663;48.996;8.334;2023-11-19T08:48:23;100128.97;;;20.41
19061;BMP280;9663;48.996;8.334;2023-11-19T08:50:48;100138.34;;;20.42
19061;BMP280;9663;48.996;8.334;2023-11-19T08:53:14;100133.28;;;20.41
19061;BMP280;9663;48.996;8.334;2023-11-19T08:55:39;100132.38;;;20.42
19061;BMP280;9663;48.996;8.334;2023-11-19T08:58:05;100132.50;;;20.39
19061;BMP280;9663;48.996;8.334;2023-11-19T09:00:31;100147.91;;;20.40
19061;BMP280;9663;48.996;8.334;2023-11-19T09:02:58;100147.00;;;20.41
19061;BMP280;9663;48.996;8.334;2023-11-19T09:05:23;100150.47;;;20.40
19061;BMP280;9663;48.996;8.334;2023-11-19T09:07:49;100153.06;;;20.40
19061;BMP280;9663;48.996;8.334;2023-11-19T09:10:15;100158.19;;;20.40
19061;BMP280;9663;48.996;8.334;2023-11-19T09:12:41;100163.22;;;20.43
19061;BMP280;9663;48.996;8.334;2023-11-19T09:15:07;100156.19;;;20.47
19061;BMP280;9663;48.996;8.334;2023-11-19T09:17:36;100153.41;;;20.51
19061;BMP280;9663;48.996;8.334;2023-11-19T09:20:01;100158.25;;;20.57
19061;BMP280;9663;48.996;8.334;2023-11-19T09:22:27;100152.97;;;20.60
19061;BMP280;9663;48.996;8.334;2023-11-19T09:24:53;100160.56;;;20.63
19061;BMP280;9663;48.996;8.334;2023-11-19T09:27:19;100157.88;;;20.66
19061;BMP280;9663;48.996;8.334;2023-11-19T09:29:46;100149.84;;;20.72
19061;BMP280;9663;48.996;8.334;2023-11-19T09:32:13;100154.75;;;20.78
19061;BMP280;9663;48.996;8.334;2023-11-19T09:34:39;100159.69;;;20.82
19061;BMP280;9663;48.996;8.334;2023-11-19T09:37:05;100163.72;;;20.88
19061;BMP280;9663;48.996;8.334;2023-11-19T09:39:31;100158.28;;;20.94
19061;BMP280;9663;48.996;8.334;2023-11-19T09:41:56;100161.53;;;20.97
19061;BMP280;9663;48.996;8.334;2023-11-19T09:44:24;100169.13;;;21.00
19061;BMP280;9663;48.996;8.334;2023-11-19T09:46:50;100163.97;;;21.00
19061;BMP280;9663;48.996;8.334;2023-11-19T09:49:21;100169.81;;;21.03
19061;BMP280;9663;48.996;8.334;2023-11-19T09:51:49;100165.22;;;21.10
19061;BMP280;9663;48.996;8.334;2023-11-19T09:54:15;100175.81;;;21.21
19061;BMP280;9663;48.996;8.334;2023-11-19T09:56:41;100174.47;;;21.31
19061;BMP280;9663;48.996;8.334;2023-11-19T09:59:08;100178.38;;;21.39
19061;BMP280;9663;48.996;8.334;2023-11-19T10:01:37;100171.38;;;21.41
19061;BMP280;9663;48.996;8.334;2023-11-19T10:04:05;100168.69;;;21.44
19061;BMP280;9663;48.996;8.334;2023-11-19T10:06:32;100161.63;;;21.47
19061;BMP280;9663;48.996;8.334;2023-11-19T10:08:57;100160.41;;;21.54
19061;BMP280;9663;48.996;8.334;2023-11-19T10:11:26;100146.81;;;21.68
19061;BMP280;9663;48.996;8.334;2023-11-19T10:13:53;100140.88;;;21.83
19061;BMP280;9663;48.996;8.334;2023-11-19T10:16:19;100143.59;;;21.96
19061;BMP280;9663;48.996;8.334;2023-11-19T10:18:47;100136.47;;;22.17
19061;BMP280;9663;48.996;8.334;2023-11-19T10:21:15;100131.09;;;22.36
19061;BMP280;9663;48.996;8.334;2023-11-19T10:23:51;100139.44;;;22.57
19061;BMP280;9663;48.996;8.334;2023-11-19T10:26:18;100132.50;;;22.73
19061;BMP280;9663;48.996;8.334;2023-11-19T10:28:47;100123.91;;;22.87
19061;BMP280;9663;48.996;8.334;2023-11-19T10:31:14;100131.28;;;22.95
19061;BMP280;9663;48.996;8.334;2023-11-19T10:33:40;100125.00;;;22.99
19061;BMP280;9663;48.996;8.334;2023-11-19T10:36:06;100120.41;;;23.04
19061;BMP280;9663;48.996;8.334;2023-11-19T10:38:33;100120.00;;;23.11
19061;BMP280;9663;48.996;8.334;2023-11-19T10:40:59;100123.31;;;23.13
19061;BMP280;9663;48.996;8.334;2023-11-19T10:43:24;100133.84;;;23.10
19061;BMP280;9663;48.996;8.334;2023-11-19T10:45:51;100121.31;;;23.03
19061;BMP280;9663;48.996;8.334;2023-11-19T10:48:18;100108.66;;;22.98
19061;BMP280;9663;48.996;8.334;2023-11-19T10:50:53;100120.94;;;22.95
19061;BMP280;9663;48.996;8.334;2023-11-19T10:53:23;100120.00;;;22.96
19061;BMP280;9663;48.996;8.334;2023-11-19T10:55:48;100122.66;;;22.94
19061;BMP280;9663;48.996;8.334;2023-11-19T10:58:16;100120.34;;;22.90
19061;BMP280;9663;48.996;8.334;2023-11-19T11:00:48;100122.16;;;22.88
19061;BMP280;9663;48.996;8.334;2023-11-19T11:03:18;100115.31;;;22.87
19061;BMP280;9663;48.996;8.334;2023-11-19T11:05:48;100118.81;;;22.86
19061;BMP280;9663;48.996;8.334;2023-11-19T11:08:14;100119.19;;;22.80
19061;BMP280;9663;48.996;8.334;2023-11-19T11:10:48;100109.16;;;22.74
19061;BMP280;9663;48.996;8.334;2023-11-19T11:13:18;100120.56;;;22.70
19061;BMP280;9663;48.996;8.334;2023-11-19T11:15:49;100126.25;;;23.07
19061;BMP280;9663;48.996;8.334;2023-11-19T11:18:16;100126.19;;;22.93
19061;BMP280;9663;48.996;8.334;2023-11-19T11:20:46;100112.91;;;22.99
19061;BMP280;9663;48.996;8.334;2023-11-19T11:37:50;100072.25;;;27.47
19061;BMP280;9663;48.996;8.334;2023-11-19T11:40:18;100063.22;;;28.49
19061;BMP280;9663;48.996;8.334;2023-11-19T11:42:45;100052.75;;;29.42
19061;BMP280;9663;48.996;8.334;2023-11-19T11:45:14;100043.06;;;30.13
19061;BMP280;9663;48.996;8.334;2023-11-19T11:50:19;100056.13;;;30.61
19061;BMP280;9663;48.996;8.334;2023-11-19T11:57:51;100042.31;;;30.41
19061;BMP280;9663;48.996;8.334;2023-11-19T12:03:01;100044.91;;;29.42
19061;BMP280;9663;48.996;8.334;2023-11-19T12:05:29;100050.72;;;29.26
19061;BMP280;9663;48.996;8.334;2023-11-19T12:07:57;100043.75;;;29.56
19061;BMP280;9663;48.996;8.334;2023-11-19T12:10:26;100034.00;;;30.26
19061;BMP280;9663;48.996;8.334;2023-11-19T12:12:59;100023.75;;;31.00
19061;BMP280;9663;48.996;8.334;2023-11-19T12:15:25;100020.53;;;31.44
19061;BMP280;9663;48.996;8.334;2023-11-19T12:17:55;100006.69;;;31.60
19061;BMP280;9663;48.996;8.334;2023-11-19T12:20:26;100010.41;;;31.03
19061;BMP280;9663;48.996;8.334;2023-11-19T12:22:53;100011.09;;;30.10
19061;BMP280;9663;48.996;8.334;2023-11-19T12:25:20;100008.09;;;29.25
19061;BMP280;9663;48.996;8.334;2023-11-19T12:27:48;100015.81;;;28.44
19061;BMP280;9663;48.996;8.334;2023-11-19T12:30:26;100017.06;;;27.86
19061;BMP280;9663;48.996;8.334;2023-11-19T12:32:53;100014.97;;;27.13
19061;BMP280;9663;48.996;8.334;2023-11-19T12:35:23;100017.09;;;26.62
19061;BMP280;9663;48.996;8.334;2023-11-19T12:37:51;100012.78;;;26.14
19061;BMP280;9663;48.996;8.334;2023-11-19T12:40:22;99996.91;;;25.71
19061;BMP280;9663;48.996;8.334;2023-11-19T12:42:52;100007.28;;;25.33
19061;BMP280;9663;48.996;8.334;2023-11-19T12:45:19;100000.66;;;25.05
19061;BMP280;9663;48.996;8.334;2023-11-19T12:47:47;99996.84;;;24.84
19061;BMP280;9663;48.996;8.334;2023-11-19T12:50:14;100010.38;;;24.63
19061;BMP280;9663;48.996;8.334;2023-11-19T12:52:41;100006.47;;;24.44
19061;BMP280;9663;48.996;8.334;2023-11-19T12:55:29;99995.97;;;24.19
19061;BMP280;9663;48.996;8.334;2023-11-19T12:57:56;100019.88;;;24.10
19061;BMP280;9663;48.996;8.334;2023-11-19T13:00:25;100012.78;;;24.00
19061;BMP280;9663;48.996;8.334;2023-11-19T13:02:54;100014.34;;;23.88
19061;BMP280;9663;48.996;8.334;2023-11-19T13:05:33;100000.19;;;23.80
19061;BMP280;9663;48.996;8.334;2023-11-19T13:08:09;99992.16;;;23.84
19061;BMP280;9663;48.996;8.334;2023-11-19T13:10:51;99998.91;;;23.87
19061;BMP280;9663;48.996;8.334;2023-11-19T13:13:17;99975.97;;;23.95
19061;BMP280;9663;48.996;8.334;2023-11-19T13:15:44;99978.16;;;24.01
19061;BMP280;9663;48.996;8.334;2023-11-19T13:18:16;99983.16;;;24.03
19061;BMP280;9663;48.996;8.334;2023-11-19T13:20:42;99991.66;;;24.05
19061;BMP280;9663;48.996;8.334;2023-11-19T13:23:08;99987.41;;;24.04
19061;BMP280;9663;48.996;8.334;2023-11-19T13:25:34;99975.66;;;23.99
19061;BMP280;9663;48.996;8.334;2023-11-19T13:28:00;99969.84;;;23.96
19061;BMP280;9663;48.996;8.334;2023-11-19T13:30:26;99977.97;;;23.90
19061;BMP280;9663;48.996;8.334;2023-11-19T13:32:52;99970.59;;;23.84
19061;BMP280;9663;48.996;8.334;2023-11-19T13:35:23;99971.84;;;23.78
19061;BMP280;9663;48.996;8.334;2023-11-19T13:37:49;99969.59;;;23.72
19061;BMP280;9663;48.996;8.334;2023-11-19T13:40:15;99973.03;;;24.13
19061;BMP280;9663;48.996;8.334;2023-11-19T13:42:44;99964.53;;;23.71
19061;BMP280;9663;48.996;8.334;2023-11-19T13:45:14;99974.50;;;23.63
19061;BMP280;9663;48.996;8.334;2023-11-19T13:47:47;99973.94;;;23.58
19061;BMP280;9663;48.996;8.334;2023-11-19T13:50:15;99962.09;;;23.54
19061;BMP280;9663;48.996;8.334;2023-11-19T13:52:44;99967.66;;;23.48
19061;BMP280;9663;48.996;8.334;2023-11-19T13:55:14;99955.38;;;23.38
19061;BMP280;9663;48.996;8.334;2023-11-19T13:57:41;99964.44;;;23.31
19061;BMP280;9663;48.996;8.334;2023-11-19T14:00:12;99966.00;;;23.19
19061;BMP280;9663;48.996;8.334;2023-11-19T14:02:49;99970.97;;;23.09
19061;BMP280;9663;48.996;8.334;2023-11-19T14:05:16;99956.56;;;23.05
19061;BMP280;9663;48.996;8.334;2023-11-19T14:07:45;99958.59;;;23.00
19061;BMP280;9663;48.996;8.334;2023-11-19T14:10:15;99952.94;;;22.93
19061;BMP280;9663;48.996;8.334;2023-11-19T14:12:41;99961.75;;;22.89
19061;BMP280;9663;48.996;8.334;2023-11-19T14:15:09;99966.44;;;22.83
19061;BMP280;9663;48.996;8.334;2023-11-19T14:17:37;99967.72;;;22.76
19061;BMP280;9663;48.996;8.334;2023-11-19T14:20:04;99948.63;;;23.21
19061;BMP280;9663;48.996;8.334;2023-11-19T14:22:45;99947.28;;;22.72
19061;BMP280;9663;48.996;8.334;2023-11-19T14:25:18;99955.59;;;22.63
19061;BMP280;9663;48.996;8.334;2023-11-19T14:27:45;99957.34;;;22.62
19061;BMP280;9663;48.996;8.334;2023-11-19T14:30:14;99952.28;;;22.61
19061;BMP280;9663;48.996;8.334;2023-11-19T14:32:41;99959.09;;;22.62
19061;BMP280;9663;48.996;8.334;2023-11-19T14:35:09;99962.53;;;22.62
19061;BMP280;9663;48.996;8.334;2023-11-19T14:37:36;99975.53;;;22.61
19061;BMP280;9663;48.996;8.334;2023-11-19T14:42:27;99959.72;;;22.51